createdAt,value
2023-04-18T00:00:13.896Z,71.31
2023-04-18T00:04:23.206Z,71.49
2023-04-18T00:08:05.033Z,71.57
2023-04-18T00:11:39.881Z,71.66
2023-04-18T00:15:12.037Z,71.85
2023-04-18T00:18:49.959Z,71.58
2023-04-18T00:22:35.887Z,71.44
2023-04-18T00:26:06.830Z,71.37
2023-04-18T00:29:44.877Z,71.28
2023-04-18T00:33:34.939Z,71.13
2023-04-18T00:36:57.927Z,70.93
2023-04-18T00:40:36.188Z,70.80
2023-04-18T00:44:19.919Z,70.93
2023-04-18T00:48:36.902Z,70.64
2023-04-18T00:56:10.122Z,70.20
2023-04-18T00:59:49.987Z,70.67
2023-04-18T01:07:22.921Z,70.25
2023-04-18T01:11:02.965Z,70.49
2023-04-18T01:14:40.016Z,70.04
2023-04-18T01:18:04.755Z,69.49
2023-04-18T01:22:16.953Z,69.45
2023-04-18T01:25:38.766Z,68.89
2023-04-18T01:29:06.951Z,68.45
2023-04-18T01:32:42.038Z,67.84
2023-04-18T01:36:27.609Z,67.00
2023-04-18T01:40:07.972Z,66.77
2023-04-18T01:43:34.986Z,66.91
2023-04-18T01:47:14.935Z,67.17
2023-04-18T01:50:56.903Z,67.26
2023-04-18T01:54:31.944Z,66.69
2023-04-18T01:58:49.496Z,66.95
2023-04-18T02:02:42.362Z,67.02
2023-04-18T02:06:16.962Z,66.81
2023-04-18T02:09:48.957Z,66.90
2023-04-18T02:13:05.893Z,66.96
2023-04-18T02:20:18.965Z,67.43
2023-04-18T02:24:06.959Z,67.32
2023-04-18T02:27:37.958Z,67.57
2023-04-18T02:30:46.899Z,67.84
2023-04-18T02:34:07.956Z,67.83
2023-04-18T02:37:59.887Z,67.85
2023-04-18T02:41:36.974Z,68.11
2023-04-18T02:45:13.925Z,67.85
2023-04-18T02:48:34.991Z,67.69
2023-04-18T02:52:25.916Z,67.86
2023-04-18T02:56:00.003Z,67.37
2023-04-18T02:59:30.902Z,67.81
2023-04-18T03:07:07.275Z,68.05
2023-04-18T03:10:51.900Z,68.26
2023-04-18T03:14:13.836Z,67.66
2023-04-18T03:17:45.929Z,67.63
2023-04-18T03:21:17.420Z,67.63
2023-04-18T03:25:12.484Z,68.08
2023-04-18T03:28:51.006Z,67.83
2023-04-18T03:32:29.918Z,67.73
2023-04-18T03:36:06.079Z,67.69
2023-04-18T03:39:46.921Z,67.61
2023-04-18T03:43:33.789Z,67.38
2023-04-18T03:47:11.929Z,66.75
2023-04-18T03:50:54.898Z,66.71
2023-04-18T03:54:50.982Z,66.82
2023-04-18T04:02:36.147Z,66.50
2023-04-18T04:06:27.988Z,65.68
2023-04-18T04:09:45.115Z,65.32
2023-04-18T04:12:13.391Z,64.54
2023-04-18T04:14:41.584Z,64.96
2023-04-18T04:17:10.228Z,65.07
2023-04-18T04:19:39.452Z,65.10
2023-04-18T04:22:13.564Z,65.67
2023-04-18T04:24:42.762Z,65.72
2023-04-18T04:27:13.510Z,65.55
2023-04-18T04:30:20.333Z,65.22
2023-04-18T04:34:02.841Z,63.52
2023-04-18T04:37:32.000Z,61.34
2023-04-18T04:40:49.917Z,61.80
2023-04-18T04:44:45.007Z,61.82
2023-04-18T04:48:44.825Z,61.36
2023-04-18T04:52:31.975Z,60.40
2023-04-18T04:56:24.912Z,61.00
2023-04-18T05:00:11.964Z,59.98
2023-04-18T05:08:00.951Z,61.05
2023-04-18T05:18:35.140Z,59.61
2023-04-18T05:22:14.980Z,59.88
2023-04-18T05:29:15.441Z,60.04
2023-04-18T05:31:43.571Z,60.22
2023-04-18T05:34:11.805Z,60.08
2023-04-18T05:36:40.490Z,60.99
2023-04-18T05:39:08.578Z,61.39
2023-04-18T05:41:36.494Z,62.18
2023-04-18T05:44:05.870Z,62.29
2023-04-18T05:46:34.186Z,62.07
2023-04-18T05:49:02.535Z,62.19
2023-04-18T05:51:31.365Z,62.13
2023-04-18T05:53:59.364Z,61.85
2023-04-18T05:56:27.373Z,61.87
2023-04-18T05:58:55.964Z,61.61
2023-04-18T06:01:23.893Z,61.62
2023-04-18T06:03:52.083Z,61.81
2023-04-18T06:06:20.409Z,62.04
2023-04-18T06:08:48.274Z,62.48
2023-04-18T06:11:16.294Z,62.33
2023-04-18T06:13:44.236Z,62.48
2023-04-18T06:16:12.770Z,62.33
2023-04-18T06:18:43.881Z,61.56
2023-04-18T06:21:13.192Z,61.34
2023-04-18T06:23:41.303Z,61.81
2023-04-18T06:26:11.428Z,61.93
2023-04-18T06:28:39.644Z,62.25
2023-04-18T06:31:09.838Z,61.75
2023-04-18T06:33:38.045Z,61.67
2023-04-18T06:36:07.190Z,61.29
2023-04-18T06:38:35.049Z,59.85
2023-04-18T06:41:02.972Z,59.55
2023-04-18T06:43:33.139Z,59.40
2023-04-18T06:46:06.590Z,58.10
2023-04-18T06:48:36.227Z,59.07
2023-04-18T06:51:05.607Z,58.52
2023-04-18T06:53:33.540Z,57.94
2023-04-18T06:56:01.452Z,56.08
2023-04-18T06:58:30.217Z,55.31
2023-04-18T07:00:58.066Z,54.91
2023-04-18T07:03:26.998Z,54.14
2023-04-18T07:06:01.596Z,54.64
2023-04-18T07:08:34.614Z,53.09
2023-04-18T07:11:06.082Z,52.50
2023-04-18T07:13:34.079Z,51.73
2023-04-18T07:16:27.225Z,49.57
2023-04-18T07:18:58.884Z,51.15
2023-04-18T07:22:00.628Z,50.37
2023-04-18T07:25:13.304Z,50.68
2023-04-18T07:28:27.473Z,51.21
2023-04-18T07:31:15.575Z,50.87
2023-04-18T07:33:49.976Z,50.46
2023-04-18T07:36:42.797Z,50.12
2023-04-18T07:39:11.317Z,50.32
2023-04-18T07:41:46.442Z,48.73
2023-04-18T07:44:14.716Z,49.83
2023-04-18T07:46:43.144Z,48.04
2023-04-18T07:49:11.265Z,48.90
2023-04-18T07:51:39.399Z,48.82
2023-04-18T07:54:07.291Z,48.96
2023-04-18T07:56:35.184Z,49.18
2023-04-18T07:59:03.082Z,48.55
2023-04-18T08:01:31.571Z,48.84
2023-04-18T08:04:02.051Z,47.63
2023-04-18T08:06:33.592Z,48.62
2023-04-18T08:09:13.276Z,47.50
2023-04-18T08:11:45.130Z,48.10
2023-04-18T08:14:28.205Z,45.50
2023-04-18T08:18:03.199Z,46.98
2023-04-18T08:20:41.464Z,47.70
2023-04-18T08:23:15.671Z,46.07
2023-04-18T08:26:19.252Z,45.79
2023-04-18T08:30:18.054Z,45.83
2023-04-18T08:42:09.594Z,43.61
2023-04-18T08:48:41.804Z,43.62
2023-04-18T08:51:24.524Z,43.66
2023-04-18T08:54:11.535Z,42.86
2023-04-18T08:59:53.019Z,42.03
2023-04-18T09:02:42.922Z,42.97
2023-04-18T09:05:14.504Z,41.29
2023-04-18T09:07:43.087Z,41.46
2023-04-18T09:10:12.693Z,41.02
2023-04-18T09:13:05.580Z,40.04
2023-04-18T09:15:36.068Z,41.74
2023-04-18T09:18:10.401Z,41.45
2023-04-18T09:20:47.582Z,38.33
2023-04-18T09:23:27.612Z,38.12
2023-04-18T09:26:05.877Z,38.10
2023-04-18T09:28:35.174Z,38.50
2023-04-18T09:31:22.679Z,38.43
2023-04-18T09:34:29.422Z,37.02
2023-04-18T09:48:30.051Z,37.49
2023-04-18T09:55:19.982Z,37.63
2023-04-18T10:02:58.932Z,36.77
2023-04-18T10:06:43.642Z,35.48
2023-04-18T10:10:02.076Z,35.10
2023-04-18T10:13:35.897Z,33.61
2023-04-18T10:17:09.174Z,34.27
2023-04-18T10:20:56.280Z,33.14
2023-04-18T10:24:26.956Z,33.68
2023-04-18T10:31:18.090Z,32.45
2023-04-18T10:34:54.112Z,32.71
2023-04-18T10:45:01.186Z,30.63
2023-04-18T11:10:27.959Z,28.39
2023-04-18T11:12:56.593Z,27.53
2023-04-18T11:15:25.774Z,26.57
2023-04-18T11:18:00.820Z,26.25
2023-04-18T11:20:38.363Z,26.74
2023-04-18T11:23:20.362Z,26.89
2023-04-18T11:25:53.727Z,26.92
2023-04-18T11:28:25.032Z,26.68
2023-04-18T11:30:59.102Z,26.94
2023-04-18T11:33:29.397Z,26.57
2023-04-18T11:35:59.556Z,25.93
2023-04-18T11:38:31.002Z,25.80
2023-04-18T11:40:59.178Z,25.04
2023-04-18T11:43:42.872Z,24.35
2023-04-18T11:46:41.846Z,23.51
2023-04-18T11:49:25.237Z,24.03
2023-04-18T11:52:11.156Z,24.17
2023-04-18T11:54:43.195Z,23.93
2023-04-18T11:57:24.055Z,23.36
2023-04-18T11:59:58.290Z,23.31
2023-04-18T12:02:40.916Z,23.93
2023-04-18T12:05:11.257Z,24.96
2023-04-18T12:07:47.917Z,23.96
2023-04-18T12:10:27.739Z,23.86
2023-04-18T12:12:58.891Z,23.12
2023-04-18T12:15:29.131Z,23.63
2023-04-18T12:18:12.110Z,22.82
2023-04-18T12:20:47.699Z,21.21
2023-04-18T12:27:12.562Z,21.18
2023-04-18T12:34:15.122Z,20.65
2023-04-18T12:37:54.404Z,20.68
2023-04-18T12:41:30.027Z,20.98
2023-04-18T12:44:51.915Z,21.51
2023-04-18T12:48:07.247Z,21.56
2023-04-18T12:51:10.863Z,21.39
2023-04-18T12:53:56.616Z,20.55
2023-04-18T12:56:58.908Z,20.25
2023-04-18T13:00:26.856Z,20.07
2023-04-18T13:04:08.312Z,19.74
2023-04-18T13:06:46.298Z,19.19
2023-04-18T13:09:55.780Z,19.13
2023-04-18T13:19:26.471Z,18.28
2023-04-18T13:22:55.109Z,18.36
2023-04-18T13:29:00.003Z,17.83
2023-04-18T13:31:29.104Z,18.83
2023-04-18T13:33:57.892Z,19.24
2023-04-18T13:36:31.892Z,19.70
2023-04-18T13:39:00.709Z,20.14
2023-04-18T13:41:28.951Z,19.91
2023-04-18T13:43:56.926Z,20.78
2023-04-18T13:46:27.412Z,21.67
2023-04-18T13:48:55.545Z,21.85
2023-04-18T13:51:23.577Z,21.11
2023-04-18T13:53:52.160Z,21.05
2023-04-18T13:56:20.354Z,20.08
2023-04-18T13:58:48.299Z,19.78
2023-04-18T14:01:16.605Z,19.20
2023-04-18T14:03:44.968Z,19.16
2023-04-18T14:06:13.675Z,19.11
2023-04-18T14:08:46.608Z,19.44
2023-04-18T14:11:14.605Z,19.61
2023-04-18T14:13:42.667Z,19.62
2023-04-18T14:16:10.966Z,19.98
2023-04-18T14:18:39.485Z,19.86
2023-04-18T14:21:07.476Z,19.45
2023-04-18T14:23:35.745Z,20.13
2023-04-18T14:26:05.009Z,20.96
2023-04-18T14:28:33.082Z,21.75
2023-04-18T14:31:02.799Z,22.79
2023-04-18T14:33:31.120Z,23.07
2023-04-18T14:35:59.070Z,22.87
2023-04-18T14:38:27.480Z,22.62
2023-04-18T14:40:55.927Z,22.17
2023-04-18T14:43:24.034Z,21.88
2023-04-18T14:45:51.909Z,21.39
2023-04-18T14:48:19.908Z,20.74
2023-04-18T14:50:56.303Z,20.45
2023-04-18T14:53:24.839Z,20.23
2023-04-18T14:55:52.900Z,20.05
2023-04-18T14:58:21.113Z,20.12
2023-04-18T15:00:49.229Z,19.57
2023-04-18T15:03:17.277Z,19.41
2023-04-18T15:05:48.326Z,19.53
2023-04-18T15:08:16.543Z,20.31
2023-04-18T15:10:44.644Z,20.45
2023-04-18T15:13:12.503Z,20.11
2023-04-18T15:15:40.497Z,20.51
2023-04-18T15:18:08.915Z,21.17
2023-04-18T15:20:37.255Z,21.66
2023-04-18T15:30:13.914Z,23.34
2023-04-18T15:33:20.982Z,24.05
2023-04-18T15:36:24.686Z,25.13
2023-04-18T15:40:28.086Z,25.72
2023-04-18T15:44:07.840Z,27.16
2023-04-18T15:47:03.557Z,27.83
2023-04-18T15:49:31.994Z,27.86
2023-04-18T15:52:03.351Z,28.16
2023-04-18T15:54:31.242Z,28.64
2023-04-18T15:56:59.142Z,28.77
2023-04-18T15:59:27.120Z,29.30
2023-04-18T16:01:55.217Z,29.49
2023-04-18T16:04:24.156Z,29.92
2023-04-18T16:06:52.189Z,29.82
2023-04-18T16:09:20.049Z,29.91
2023-04-18T16:12:24.062Z,31.20
2023-04-18T16:16:14.024Z,32.46
2023-04-18T16:20:14.631Z,33.72
2023-04-18T16:23:40.909Z,34.75
2023-04-18T16:34:09.797Z,36.28
2023-04-18T16:37:31.236Z,36.38
2023-04-18T16:44:57.139Z,37.19
2023-04-18T16:47:25.086Z,37.56
2023-04-18T16:49:55.513Z,37.31
2023-04-18T16:52:24.308Z,37.56
2023-04-18T16:54:53.480Z,37.60
2023-04-18T16:57:21.296Z,37.96
2023-04-18T16:59:49.258Z,38.43
2023-04-18T17:02:17.341Z,38.61
2023-04-18T17:04:45.961Z,38.93
2023-04-18T17:07:16.453Z,38.99
2023-04-18T17:09:45.112Z,39.07
2023-04-18T17:12:13.511Z,39.45
2023-04-18T17:14:41.399Z,39.34
2023-04-18T17:17:09.271Z,39.61
2023-04-18T17:19:37.715Z,39.66
2023-04-18T17:22:05.819Z,39.53
2023-04-18T17:24:33.829Z,39.55
2023-04-18T17:27:02.005Z,40.00
2023-04-18T17:29:29.926Z,40.20
2023-04-18T17:31:57.800Z,40.67
2023-04-18T17:34:25.903Z,40.85
2023-04-18T17:36:53.830Z,40.63
2023-04-18T17:39:23.953Z,41.00
2023-04-18T17:41:51.783Z,40.93
2023-04-18T17:44:19.667Z,41.10
2023-04-18T17:46:48.961Z,41.28
2023-04-18T17:49:18.583Z,41.53
2023-04-18T17:51:46.550Z,41.14
2023-04-18T17:54:14.366Z,41.51
2023-04-18T17:56:42.256Z,41.55
2023-04-18T17:59:10.895Z,41.50
2023-04-18T18:01:40.637Z,41.49
2023-04-18T18:04:08.624Z,41.91
2023-04-18T18:06:36.551Z,41.81
2023-04-18T18:09:04.522Z,41.57
2023-04-18T18:11:32.433Z,41.57
2023-04-18T18:14:00.760Z,41.79
2023-04-18T18:16:28.674Z,41.91
2023-04-18T18:18:56.598Z,42.20
2023-04-18T18:21:24.498Z,42.41
2023-04-18T18:24:21.943Z,42.38
2023-04-18T18:27:54.878Z,42.91
2023-04-18T18:31:36.977Z,42.41
2023-04-18T18:35:30.174Z,43.00
2023-04-18T18:46:55.872Z,42.97
2023-04-18T18:57:06.911Z,42.98
2023-04-18T19:00:43.911Z,43.15
2023-04-18T19:15:43.002Z,43.51
2023-04-18T19:23:14.322Z,43.91
2023-04-18T19:27:25.893Z,44.00
2023-04-18T19:31:08.156Z,44.23
2023-04-18T19:45:32.800Z,45.73
2023-04-18T19:48:25.987Z,46.26
2023-04-18T19:51:08.233Z,46.21
2023-04-18T19:54:05.319Z,46.34
2023-04-18T19:56:55.123Z,45.69
2023-04-18T19:59:50.430Z,45.82
2023-04-18T20:02:47.070Z,46.97
2023-04-18T20:05:45.880Z,46.95
2023-04-18T20:08:44.106Z,46.86
2023-04-18T20:12:15.029Z,46.92
2023-04-18T20:15:03.724Z,48.32
2023-04-18T20:18:11.830Z,47.82
2023-04-18T20:21:02.251Z,48.62
2023-04-18T20:24:28.002Z,49.43
2023-04-18T20:27:29.615Z,49.56
2023-04-18T20:30:41.542Z,49.83
2023-04-18T20:33:36.732Z,49.76
2023-04-18T20:37:10.742Z,51.35
2023-04-18T20:40:39.005Z,53.14
2023-04-18T20:43:48.184Z,52.80
2023-04-18T20:47:03.152Z,53.73
2023-04-18T20:50:15.625Z,54.89
2023-04-18T20:53:49.944Z,54.53
2023-04-18T21:04:38.253Z,54.71
2023-04-18T21:11:28.019Z,56.21
2023-04-18T21:15:22.279Z,56.09
2023-04-18T21:26:43.976Z,56.47
2023-04-18T21:30:28.983Z,56.91
2023-04-18T21:37:19.058Z,56.76
2023-04-18T21:39:47.136Z,56.38
2023-04-18T21:42:15.043Z,57.21
2023-04-18T21:44:42.921Z,57.34
2023-04-18T21:47:10.843Z,57.61
2023-04-18T21:49:38.807Z,57.37
2023-04-18T21:52:07.722Z,57.63
2023-04-18T21:54:35.849Z,57.26
2023-04-18T21:57:05.855Z,56.76
2023-04-18T21:59:33.816Z,56.80
2023-04-18T22:02:01.863Z,57.33
2023-04-18T22:04:29.906Z,56.87
2023-04-18T22:06:57.853Z,56.91
2023-04-18T22:09:25.855Z,56.85
2023-04-18T22:11:57.060Z,57.77
2023-04-18T22:14:26.144Z,57.62
2023-04-18T22:16:54.684Z,57.56
2023-04-18T22:19:22.735Z,57.75
2023-04-18T22:21:51.080Z,57.66
2023-04-18T22:24:19.651Z,57.52
2023-04-18T22:26:47.935Z,57.55
2023-04-18T22:29:16.001Z,57.74
2023-04-18T22:31:43.856Z,57.10
2023-04-18T22:34:11.817Z,58.07
2023-04-18T22:36:39.967Z,58.17
2023-04-18T22:39:08.026Z,57.80
2023-04-18T22:41:35.961Z,57.77
2023-04-18T22:44:04.824Z,57.67
2023-04-18T22:46:32.968Z,57.25
2023-04-18T22:53:26.247Z,58.32
2023-04-18T22:57:16.471Z,57.86
2023-04-18T23:04:42.913Z,57.75
2023-04-18T23:08:25.004Z,58.25
2023-04-18T23:12:07.701Z,57.71
2023-04-18T23:15:41.810Z,57.62
2023-04-18T23:19:21.799Z,57.75
2023-04-18T23:23:08.129Z,57.64
2023-04-18T23:27:00.758Z,57.60
2023-04-18T23:31:01.449Z,57.53
2023-04-18T23:34:59.817Z,57.46
2023-04-18T23:38:34.971Z,57.34
2023-04-18T23:42:32.684Z,59.03
2023-04-18T23:54:24.790Z,59.03
2023-04-18T23:58:07.319Z,59.23
